Lulu Pass Weather Station

This weather station provides temperature, relative humidity (RH), wind speed, gust or max wind speed, and wind direction at 10014ft near Lulu Pass at the head of Fisher Creek. This data can be used with temperature and precipitation data from the Fisher Creek SNOTEL site.

This weather station was purchased by the Friends of the Avalanche Center.

If the data has not been updated recently you can view it directly on datagarrison.com

Elevation
10014ft
Jump to table bottom
Date Time Temperature
deg F
RH, % Wind Speed Wind Gust Wind Direction
11/25/20 16:00 13.5 93 10 27 SW - 236
11/25/20 15:00 13.7 93 8 23 SW - 233
11/25/20 14:00 14.1 93 12 28 SW - 216
11/25/20 13:00 13.0 93 14 29 SW - 208
11/25/20 12:00 14.2 93 10 26 SW - 211
11/25/20 11:00 12.3 93 6 17 SW - 244
11/25/20 10:00 11.7 92 3 10 W - 286
11/25/20 09:00 9.8 92 5 12 SW - 237
11/25/20 08:00 10.0 92 8 15 SW - 220
11/25/20 07:00 10.2 92 9 17 SW - 213
11/25/20 06:00 10.4 92 8 17 SW - 209
11/25/20 05:00 10.6 92 8 15 SW - 208
11/25/20 04:00 9.9 92 8 17 SW - 218
11/25/20 03:00 9.4 92 7 16 SW - 226
11/25/20 02:00 9.0 92 5 13 SW - 219
11/25/20 01:00 8.6 91 5 14 SW - 236
11/25/20 00:00 8.0 91 4 12 W - 278
11/24/20 23:00 7.5 91 11 20 NW - 312
11/24/20 22:00 7.3 91 10 17 NW - 306
11/24/20 21:00 7.8 91 12 18 NW - 310
11/24/20 20:00 8.4 91 14 19 NW - 317
11/24/20 19:00 9.0 91 15 20 NW - 324
11/24/20 18:00 9.2 91 15 21 NW - 320
11/24/20 17:00 9.5 91 15 20 NW - 321
11/24/20 16:00 10.0 92 14 23 NW - 310
11/24/20 15:00 10.7 92 10 20 NW - 296
11/24/20 14:00 12.8 92 9 19 NW - 302
11/24/20 13:00 8.6 91 12 20 NW - 316
11/24/20 12:00 7.6 91 8 16 NW - 309
11/24/20 11:00 8.4 90 8 14 NW - 319
11/24/20 10:00 8.2 91 8 12 NW - 313
11/24/20 09:00 7.8 90 7 11 NW - 309
11/24/20 08:00 8.0 91 7 12 NW - 310
11/24/20 07:00 7.8 90 7 11 NW - 326
11/24/20 06:00 7.0 90 6 9 NW - 312
11/24/20 05:00 7.3 90 8 12 NW - 310
11/24/20 04:00 8.6 91 9 13 NW - 330
11/24/20 03:00 8.4 91 9 12 NW - 333
11/24/20 02:00 9.1 91 8 10 NW - 330
11/24/20 01:00 9.3 91 6 10 NW - 320
11/24/20 00:00 9.8 91 4 8 W - 289
11/23/20 23:00 10.8 91 3 10 NW - 316
11/23/20 22:00 11.4 91 6 11 NW - 333
11/23/20 21:00 11.9 91 3 7 NW - 329
11/23/20 20:00 12.1 91 5 9 SW - 241
11/23/20 19:00 13.0 85 5 9 NW - 302
11/23/20 18:00 14.5 82 5 13 SW - 244
11/23/20 17:00 15.9 75 7 14 W - 248
11/23/20 16:00 16.2 67 7 16 W - 281
11/23/20 15:00 16.2 60 7 15 W - 248